createdAt,value
2017-11-25T00:02:17.479Z,8.43
2017-11-25T00:04:45.015Z,9.27
2017-11-25T00:07:12.573Z,8.33
2017-11-25T00:09:40.086Z,8.53
2017-11-25T00:12:07.664Z,7.63
2017-11-25T00:14:35.173Z,8.13
2017-11-25T00:17:03.071Z,8.43
2017-11-25T00:19:30.574Z,9.80
2017-11-25T00:21:58.089Z,8.57
2017-11-25T00:24:25.654Z,8.90
2017-11-25T00:26:53.882Z,6.60
2017-11-25T00:29:21.424Z,9.87
2017-11-25T00:31:48.980Z,8.37
2017-11-25T00:34:16.929Z,9.40
2017-11-25T00:36:44.468Z,10.20
2017-11-25T00:39:11.977Z,8.80
2017-11-25T00:41:39.526Z,10.73
2017-11-25T00:44:07.637Z,9.03
2017-11-25T00:46:35.958Z,6.77
2017-11-25T00:49:03.511Z,8.10
2017-11-25T00:51:31.402Z,5.77
2017-11-25T00:53:58.933Z,8.90
2017-11-25T00:56:26.446Z,9.60
2017-11-25T00:58:54.017Z,7.20
2017-11-25T01:01:21.777Z,10.30
2017-11-25T01:03:49.904Z,11.57
2017-11-25T01:06:18.236Z,9.73
2017-11-25T01:08:46.575Z,9.87
2017-11-25T01:11:14.085Z,9.40
2017-11-25T01:13:42.777Z,10.70
2017-11-25T01:16:11.173Z,12.80
2017-11-25T01:18:38.691Z,13.47
2017-11-25T01:21:06.235Z,12.13
2017-11-25T01:23:33.755Z,13.47
2017-11-25T01:26:01.408Z,15.73
2017-11-25T01:28:28.919Z,16.37
2017-11-25T01:30:56.799Z,15.60
2017-11-25T01:33:24.332Z,13.70
2017-11-25T01:35:51.878Z,17.50
2017-11-25T01:38:20.176Z,17.00
2017-11-25T01:40:47.688Z,19.80
2017-11-25T01:43:16.018Z,16.63
2017-11-25T01:45:43.550Z,16.80
2017-11-25T01:50:43.157Z,17.83
2017-11-25T01:53:10.702Z,16.53
2017-11-25T01:55:39.449Z,20.07
2017-11-25T01:58:06.974Z,15.50
2017-11-25T02:00:34.525Z,17.37
2017-11-25T02:03:02.747Z,12.80
2017-11-25T02:05:30.619Z,15.93
2017-11-25T02:07:58.146Z,14.00
2017-11-25T02:10:25.657Z,15.57
2017-11-25T02:12:53.191Z,12.27
2017-11-25T02:15:20.743Z,12.43
2017-11-25T02:17:48.301Z,11.53
2017-11-25T02:20:15.804Z,9.77
2017-11-25T02:22:43.352Z,12.63
2017-11-25T02:25:10.908Z,12.93
2017-11-25T02:27:38.743Z,14.60
2017-11-25T02:30:06.397Z,13.97
2017-11-25T02:32:33.941Z,12.47
2017-11-25T02:35:01.538Z,18.80
2017-11-25T02:37:29.077Z,13.20
2017-11-25T02:39:56.626Z,16.13
2017-11-25T02:42:24.137Z,18.57
2017-11-25T02:44:51.985Z,22.23
2017-11-25T02:47:19.523Z,22.37
2017-11-25T02:49:47.090Z,18.03
2017-11-25T02:52:14.681Z,21.17
2017-11-25T02:54:42.203Z,23.53
2017-11-25T02:57:09.743Z,24.07
2017-11-25T02:59:38.040Z,26.53
2017-11-25T03:02:05.949Z,26.73
2017-11-25T03:04:33.552Z,25.33
2017-11-25T03:07:01.775Z,30.80
2017-11-25T03:09:29.321Z,25.40
2017-11-25T03:11:56.841Z,28.83
2017-11-25T03:14:24.461Z,29.67
2017-11-25T03:16:51.984Z,25.10
2017-11-25T03:19:19.884Z,31.13
2017-11-25T03:21:47.407Z,25.37
2017-11-25T03:24:14.933Z,26.27
2017-11-25T03:26:42.482Z,26.93
2017-11-25T03:29:10.002Z,26.00
2017-11-25T03:31:37.543Z,30.07
2017-11-25T03:34:05.064Z,34.33
2017-11-25T03:36:32.884Z,29.63
2017-11-25T03:39:00.408Z,37.60
2017-11-25T03:41:27.933Z,29.50
2017-11-25T03:43:55.458Z,38.03
2017-11-25T03:46:22.983Z,32.10
2017-11-25T03:48:50.509Z,30.00
2017-11-25T03:51:18.019Z,31.37
2017-11-25T03:53:46.733Z,30.70
2017-11-25T03:56:14.276Z,36.63
2017-11-25T03:58:41.828Z,34.23
2017-11-25T04:01:10.142Z,34.77
2017-11-25T04:03:37.658Z,33.47
2017-11-25T04:06:05.980Z,29.40
2017-11-25T04:08:33.541Z,30.50
2017-11-25T04:11:01.443Z,34.17
2017-11-25T04:13:28.999Z,34.77
2017-11-25T04:15:56.526Z,31.87
2017-11-25T04:18:24.069Z,41.57
2017-11-25T04:20:51.593Z,37.03
2017-11-25T04:23:19.158Z,35.83
2017-11-25T04:25:46.702Z,34.20
2017-11-25T04:28:14.533Z,36.67
2017-11-25T04:30:42.047Z,32.83
2017-11-25T04:33:09.563Z,32.30
2017-11-25T04:35:37.100Z,35.57
2017-11-25T04:38:05.391Z,36.47
2017-11-25T04:40:32.976Z,29.37
2017-11-25T04:43:00.492Z,34.97
2017-11-25T04:45:29.119Z,31.20
2017-11-25T04:47:56.648Z,30.47
2017-11-25T04:50:24.160Z,34.80
2017-11-25T04:52:51.713Z,32.50
2017-11-25T04:55:19.242Z,26.03
2017-11-25T04:57:46.818Z,32.97
2017-11-25T05:00:14.722Z,29.03
2017-11-25T05:02:42.507Z,29.37
2017-11-25T05:05:10.805Z,34.10
2017-11-25T05:07:38.315Z,37.60
2017-11-25T05:10:05.858Z,29.30
2017-11-25T05:12:33.384Z,33.07
2017-11-25T05:15:00.926Z,36.47
2017-11-25T05:17:29.240Z,35.67
2017-11-25T05:19:57.085Z,35.37
2017-11-25T05:22:24.624Z,35.07
2017-11-25T05:24:52.942Z,34.40
2017-11-25T05:27:20.482Z,26.80
2017-11-25T05:29:47.999Z,29.97
2017-11-25T05:32:15.538Z,33.07
2017-11-25T05:34:43.062Z,35.23
2017-11-25T05:37:10.596Z,40.00
2017-11-25T05:39:38.121Z,30.87
2017-11-25T05:42:05.657Z,30.40
2017-11-25T05:44:33.192Z,34.40
2017-11-25T05:47:01.472Z,32.10
2017-11-25T05:49:29.005Z,28.73
2017-11-25T05:51:57.313Z,32.50
2017-11-25T05:54:25.598Z,39.37
2017-11-25T05:56:53.129Z,26.27
2017-11-25T05:59:21.413Z,30.13
2017-11-25T06:01:48.938Z,30.70
2017-11-25T06:04:16.810Z,33.07
2017-11-25T06:06:44.322Z,27.40
2017-11-25T06:09:11.855Z,30.50
2017-11-25T06:11:39.362Z,31.90
2017-11-25T06:14:07.326Z,33.67
2017-11-25T06:16:34.859Z,28.53
2017-11-25T06:19:03.182Z,32.60
2017-11-25T06:21:30.731Z,29.00
2017-11-25T06:23:58.260Z,34.67
2017-11-25T06:26:26.563Z,31.93
2017-11-25T06:28:54.089Z,33.60
2017-11-25T06:31:22.727Z,33.43
2017-11-25T06:33:54.457Z,26.67
2017-11-25T06:36:22.018Z,34.30
2017-11-25T06:38:49.616Z,32.17
2017-11-25T06:41:17.144Z,28.57
2017-11-25T06:43:44.719Z,28.70
2017-11-25T06:46:12.244Z,34.80
2017-11-25T06:48:40.801Z,32.63
2017-11-25T06:51:08.313Z,32.83
2017-11-25T06:53:35.840Z,29.43
2017-11-25T06:56:04.183Z,29.07
2017-11-25T06:58:31.714Z,29.63
2017-11-25T07:00:59.249Z,29.13
2017-11-25T07:03:26.767Z,29.47
2017-11-25T07:05:54.322Z,27.00
2017-11-25T07:08:21.919Z,30.30
2017-11-25T07:10:49.648Z,25.07
2017-11-25T07:13:17.209Z,33.77
2017-11-25T07:15:45.214Z,26.67
2017-11-25T07:18:12.744Z,29.37
2017-11-25T07:20:40.255Z,27.83
2017-11-25T07:23:09.361Z,28.97
2017-11-25T07:25:36.947Z,31.70
2017-11-25T07:28:04.475Z,32.83
2017-11-25T07:30:31.990Z,29.73
2017-11-25T07:32:59.941Z,27.33
2017-11-25T07:35:27.456Z,28.50
2017-11-25T07:37:55.877Z,33.70
2017-11-25T07:40:23.422Z,25.93
2017-11-25T07:42:51.701Z,33.40
2017-11-25T07:45:19.247Z,31.20
2017-11-25T07:47:46.758Z,28.27
2017-11-25T07:50:14.287Z,31.63
2017-11-25T07:52:43.440Z,32.07
2017-11-25T07:55:11.775Z,27.47
2017-11-25T07:57:39.326Z,32.60
2017-11-25T08:00:07.065Z,31.67
2017-11-25T08:02:34.643Z,26.70
2017-11-25T08:05:02.187Z,32.43
2017-11-25T08:07:29.718Z,32.00
2017-11-25T08:09:58.047Z,32.83
2017-11-25T08:12:25.715Z,36.90
2017-11-25T08:14:53.240Z,34.63
2017-11-25T08:17:21.544Z,29.60
2017-11-25T08:19:49.082Z,35.40
2017-11-25T08:22:16.641Z,35.80
2017-11-25T08:24:44.186Z,30.10
2017-11-25T08:27:12.514Z,34.60
2017-11-25T08:29:40.058Z,35.03
2017-11-25T08:32:07.676Z,25.93
2017-11-25T08:34:35.984Z,31.33
2017-11-25T08:37:04.298Z,30.40
2017-11-25T08:39:32.505Z,36.33
2017-11-25T08:42:00.062Z,34.77
2017-11-25T08:44:27.588Z,32.43
2017-11-25T08:46:55.142Z,30.83
2017-11-25T08:49:23.453Z,34.53
2017-11-25T08:51:51.012Z,33.30
2017-11-25T08:54:18.543Z,33.07
2017-11-25T08:56:46.204Z,35.80
2017-11-25T08:59:13.763Z,32.83
2017-11-25T09:01:41.316Z,38.00
2017-11-25T09:04:08.856Z,38.93
2017-11-25T09:06:37.686Z,40.40
2017-11-25T09:09:05.476Z,38.83
2017-11-25T09:11:33.169Z,34.67
2017-11-25T09:14:01.605Z,38.33
2017-11-25T09:16:29.131Z,37.53
2017-11-25T09:18:56.674Z,36.47
2017-11-25T09:21:24.948Z,37.93
2017-11-25T09:23:52.556Z,34.70
2017-11-25T09:26:20.116Z,37.80
2017-11-25T09:28:47.741Z,32.10
2017-11-25T09:31:15.330Z,36.63
2017-11-25T09:33:43.225Z,35.57
2017-11-25T09:36:10.902Z,37.67
2017-11-25T09:38:38.611Z,34.60
2017-11-25T09:41:06.470Z,33.90
2017-11-25T09:43:34.017Z,35.50
2017-11-25T09:46:02.344Z,38.23
2017-11-25T09:48:29.914Z,30.30
2017-11-25T09:50:57.723Z,37.23
2017-11-25T09:53:26.046Z,30.73
2017-11-25T09:55:54.545Z,34.87
2017-11-25T09:58:22.141Z,34.20
2017-11-25T10:00:49.707Z,35.83
2017-11-25T10:03:17.259Z,36.57
2017-11-25T10:05:45.628Z,34.17
2017-11-25T10:08:13.487Z,39.57
2017-11-25T10:10:41.057Z,36.63
2017-11-25T10:13:08.679Z,35.80
2017-11-25T10:15:36.277Z,39.47
2017-11-25T10:18:03.825Z,36.00
2017-11-25T10:20:31.367Z,35.33
2017-11-25T10:22:58.893Z,37.07
2017-11-25T10:25:26.856Z,41.67
2017-11-25T10:27:55.146Z,38.27
2017-11-25T10:30:22.722Z,42.83
2017-11-25T10:32:53.939Z,38.93
2017-11-25T10:35:21.471Z,45.40
2017-11-25T10:37:49.188Z,40.00
2017-11-25T10:40:16.753Z,43.00
2017-11-25T10:42:44.801Z,42.70
2017-11-25T10:45:12.372Z,44.30
2017-11-25T10:47:39.903Z,36.50
2017-11-25T10:50:07.498Z,43.77
2017-11-25T10:52:35.175Z,42.33
2017-11-25T10:55:02.783Z,44.07
2017-11-25T10:57:30.300Z,38.83
2017-11-25T10:59:58.167Z,36.47
2017-11-25T11:02:26.449Z,39.90
2017-11-25T11:04:54.003Z,37.97
2017-11-25T11:07:21.533Z,36.20
2017-11-25T11:09:49.092Z,39.07
2017-11-25T11:12:17.451Z,34.30
2017-11-25T11:14:45.779Z,43.90
2017-11-25T11:17:13.789Z,38.23
2017-11-25T11:19:41.362Z,38.10
2017-11-25T11:22:09.650Z,40.33
2017-11-25T11:24:38.027Z,37.07
2017-11-25T11:27:05.609Z,37.90
2017-11-25T11:29:33.192Z,37.30
2017-11-25T11:32:00.740Z,39.83
2017-11-25T11:34:28.580Z,32.83
2017-11-25T11:36:56.924Z,32.63
2017-11-25T11:39:24.428Z,43.10
2017-11-25T11:41:51.991Z,34.13
2017-11-25T11:44:20.273Z,38.50
2017-11-25T11:46:47.914Z,28.00
2017-11-25T11:49:15.504Z,26.30
2017-11-25T11:51:43.451Z,23.30
2017-11-25T11:54:11.777Z,16.47
2017-11-25T11:56:39.294Z,8.80
2017-11-25T11:59:06.859Z,8.53
2017-11-25T12:01:34.490Z,5.83
2017-11-25T12:04:02.116Z,2.60
2017-11-25T12:06:29.629Z,3.17
2017-11-25T12:08:58.236Z,1.50
2017-11-25T12:11:25.923Z,3.00
2017-11-25T12:13:53.556Z,2.10
2017-11-25T12:16:21.915Z,1.73
2017-11-25T12:18:50.347Z,1.70
2017-11-25T12:21:17.927Z,1.47
2017-11-25T12:23:45.475Z,1.67
2017-11-25T12:26:13.367Z,4.40
2017-11-25T12:28:41.223Z,1.40
2017-11-25T12:31:08.760Z,1.70
2017-11-25T12:33:36.300Z,1.73
2017-11-25T12:36:04.767Z,1.60
2017-11-25T12:38:33.127Z,1.57
2017-11-25T12:41:01.511Z,1.30
2017-11-25T12:43:29.363Z,1.30
2017-11-25T12:45:56.923Z,2.20
2017-11-25T12:48:24.529Z,1.50
2017-11-25T12:50:52.161Z,2.50
2017-11-25T12:53:20.557Z,1.60
2017-11-25T12:55:48.679Z,8.20
2017-11-25T12:58:16.336Z,3.23
2017-11-25T13:00:44.172Z,2.53
2017-11-25T13:03:11.720Z,2.03
2017-11-25T13:05:40.139Z,2.03
2017-11-25T13:08:07.725Z,2.20
2017-11-25T13:10:35.331Z,1.70
2017-11-25T13:13:03.706Z,1.87
2017-11-25T13:15:34.087Z,1.30
2017-11-25T13:18:01.950Z,3.43
2017-11-25T13:20:29.500Z,2.30
2017-11-25T13:22:57.017Z,4.00
2017-11-25T13:25:25.981Z,3.90
2017-11-25T13:27:53.530Z,7.13
2017-11-25T13:30:21.094Z,3.90
2017-11-25T13:32:48.673Z,3.50
2017-11-25T13:35:16.293Z,2.47
2017-11-25T13:37:43.854Z,3.10
2017-11-25T13:40:11.738Z,2.60
2017-11-25T13:42:39.294Z,2.33
2017-11-25T13:45:06.822Z,2.30
2017-11-25T13:47:34.402Z,2.40
2017-11-25T13:50:01.954Z,2.33
2017-11-25T13:52:29.596Z,2.67
2017-11-25T13:54:57.917Z,3.43
2017-11-25T13:57:25.832Z,2.90
2017-11-25T13:59:53.396Z,2.67
2017-11-25T14:02:21.739Z,2.30
2017-11-25T14:04:49.285Z,2.30
2017-11-25T14:07:16.826Z,2.10
2017-11-25T14:09:44.379Z,2.03
2017-11-25T14:12:11.939Z,1.50
2017-11-25T14:14:39.949Z,2.90
2017-11-25T14:17:07.577Z,2.87
2017-11-25T14:19:35.152Z,2.70
2017-11-25T14:22:02.713Z,3.20
2017-11-25T14:24:30.249Z,3.93
2017-11-25T14:26:57.812Z,2.33
2017-11-25T14:29:26.259Z,1.87
2017-11-25T14:31:54.082Z,1.63
2017-11-25T14:34:21.633Z,1.60
2017-11-25T14:36:49.199Z,3.27
2017-11-25T14:39:16.838Z,1.93
2017-11-25T14:41:44.396Z,3.80
2017-11-25T14:44:11.975Z,2.30
2017-11-25T14:46:39.523Z,3.73
2017-11-25T14:49:07.435Z,1.70
2017-11-25T14:51:35.009Z,2.00
2017-11-25T14:54:02.624Z,2.30
2017-11-25T14:56:30.187Z,2.40
2017-11-25T14:58:57.824Z,2.67
2017-11-25T15:01:25.368Z,2.20
2017-11-25T15:03:52.965Z,2.30
2017-11-25T15:06:20.493Z,1.77
2017-11-25T15:08:48.068Z,2.77
2017-11-25T15:11:16.422Z,1.63
2017-11-25T15:13:44.016Z,1.90
2017-11-25T15:16:11.706Z,2.47
2017-11-25T15:18:39.244Z,1.80
2017-11-25T15:21:06.785Z,4.03
2017-11-25T15:23:35.112Z,3.53
2017-11-25T15:26:02.638Z,1.97
2017-11-25T15:28:30.986Z,1.77
2017-11-25T15:30:58.509Z,2.53
2017-11-25T15:33:26.080Z,2.00
2017-11-25T15:35:53.594Z,1.30
2017-11-25T15:38:21.970Z,1.40
2017-11-25T15:40:50.294Z,1.60
2017-11-25T15:43:17.932Z,2.07
2017-11-25T15:45:45.510Z,2.23
2017-11-25T15:48:13.072Z,2.23
2017-11-25T15:50:41.249Z,3.77
2017-11-25T15:53:09.790Z,4.20
2017-11-25T15:55:37.384Z,4.70
2017-11-25T15:58:04.953Z,4.83
2017-11-25T16:00:32.522Z,4.67
2017-11-25T16:03:00.325Z,4.60
2017-11-25T16:05:27.866Z,4.03
2017-11-25T16:07:55.546Z,3.67
2017-11-25T16:10:23.901Z,3.27
2017-11-25T16:12:51.421Z,3.37
2017-11-25T16:15:19.016Z,3.10
2017-11-25T16:17:46.603Z,4.60
2017-11-25T16:20:14.259Z,2.83
2017-11-25T16:22:41.801Z,2.67
2017-11-25T16:25:09.370Z,2.87
2017-11-25T16:27:36.964Z,2.77
2017-11-25T16:30:05.338Z,3.60
2017-11-25T16:32:32.883Z,3.37
2017-11-25T16:35:00.623Z,2.53
2017-11-25T16:37:29.005Z,2.93
2017-11-25T16:39:56.559Z,3.20
2017-11-25T16:42:27.056Z,3.10
2017-11-25T16:44:55.237Z,2.77
2017-11-25T16:47:23.234Z,2.43
2017-11-25T16:49:50.900Z,2.40
2017-11-25T16:52:18.472Z,2.50
2017-11-25T16:54:47.125Z,2.70
2017-11-25T16:57:14.687Z,3.00
2017-11-25T16:59:43.119Z,2.80
2017-11-25T17:02:10.657Z,2.70
2017-11-25T17:04:40.288Z,2.30
2017-11-25T17:07:07.877Z,3.27
2017-11-25T17:09:37.502Z,2.90
2017-11-25T17:12:05.027Z,3.40
2017-11-25T17:14:32.652Z,3.30
2017-11-25T17:17:00.313Z,4.20
2017-11-25T17:19:27.950Z,2.97
2017-11-25T17:21:55.545Z,4.00
2017-11-25T17:24:26.153Z,3.60
2017-11-25T17:26:54.154Z,2.67
2017-11-25T17:29:21.717Z,2.03
2017-11-25T17:31:49.315Z,3.60
2017-11-25T17:34:16.956Z,3.30
2017-11-25T17:36:44.574Z,1.87
2017-11-25T17:39:12.897Z,2.03
2017-11-25T17:41:40.460Z,3.70
2017-11-25T17:44:08.071Z,2.30
2017-11-25T17:46:35.634Z,2.17
2017-11-25T17:49:03.211Z,2.10
2017-11-25T17:51:30.792Z,2.07
2017-11-25T17:53:58.315Z,2.30
2017-11-25T17:56:25.895Z,3.97
2017-11-25T17:58:53.422Z,2.50
2017-11-25T18:01:21.090Z,1.77
2017-11-25T18:06:20.666Z,1.70
2017-11-25T18:08:48.214Z,2.30
2017-11-25T18:11:15.783Z,2.13
2017-11-25T18:13:43.354Z,2.23
2017-11-25T18:16:10.880Z,2.70
2017-11-25T18:18:39.237Z,2.00
2017-11-25T18:21:06.794Z,3.50
2017-11-25T18:23:34.394Z,3.90
2017-11-25T18:26:01.918Z,3.00
2017-11-25T18:28:29.487Z,3.00
2017-11-25T18:30:57.046Z,2.93
2017-11-25T18:33:24.579Z,2.97
2017-11-25T18:35:53.135Z,3.63
2017-11-25T18:38:20.655Z,2.90
2017-11-25T18:40:48.176Z,3.27
2017-11-25T18:43:15.786Z,2.63
2017-11-25T18:45:43.363Z,2.30
2017-11-25T18:48:11.261Z,2.73
2017-11-25T18:50:39.603Z,2.00
2017-11-25T18:53:07.183Z,1.57
2017-11-25T18:55:34.757Z,1.60
2017-11-25T18:58:02.304Z,2.23
2017-11-25T19:00:29.856Z,2.30
2017-11-25T19:02:57.374Z,2.30
2017-11-25T19:05:25.293Z,1.80
2017-11-25T19:07:52.827Z,1.80
2017-11-25T19:10:20.360Z,2.37
2017-11-25T19:12:48.673Z,1.80
2017-11-25T19:15:16.210Z,2.20
2017-11-25T19:17:43.788Z,3.03
2017-11-25T19:20:11.355Z,2.50
2017-11-25T19:22:39.162Z,2.80
2017-11-25T19:25:06.990Z,2.17
2017-11-25T19:27:35.755Z,2.27
2017-11-25T19:30:03.330Z,3.20
2017-11-25T19:32:30.863Z,2.60
2017-11-25T19:34:58.402Z,3.40
2017-11-25T19:37:26.694Z,3.23
2017-11-25T19:39:55.259Z,2.63
2017-11-25T19:42:22.827Z,3.03
2017-11-25T19:44:50.852Z,2.80
2017-11-25T19:47:18.420Z,2.67
2017-11-25T19:49:45.960Z,2.70
2017-11-25T19:52:13.507Z,2.63
2017-11-25T19:54:42.026Z,3.20
2017-11-25T19:57:10.842Z,2.47
2017-11-25T19:59:38.377Z,3.30
2017-11-25T20:02:06.041Z,3.10
2017-11-25T20:04:33.611Z,3.50
2017-11-25T20:07:01.870Z,3.27
2017-11-25T20:09:29.471Z,4.93
2017-11-25T20:11:56.994Z,2.70
2017-11-25T20:14:24.814Z,3.73
2017-11-25T20:16:53.155Z,3.90
2017-11-25T20:19:22.608Z,3.83
2017-11-25T20:21:51.035Z,3.20
2017-11-25T20:24:18.617Z,2.40
2017-11-25T20:26:46.183Z,3.13
2017-11-25T20:29:14.807Z,3.20
2017-11-25T20:31:42.661Z,3.00
2017-11-25T20:34:11.054Z,3.23
2017-11-25T20:36:40.690Z,4.23
2017-11-25T20:39:08.299Z,3.40
2017-11-25T20:41:35.801Z,3.10
2017-11-25T20:44:03.641Z,4.87
2017-11-25T20:46:31.971Z,3.33
2017-11-25T20:48:59.494Z,4.97
2017-11-25T20:51:27.108Z,4.30
2017-11-25T20:53:55.940Z,4.27
2017-11-25T20:56:23.782Z,7.40
2017-11-25T20:58:52.072Z,5.03
2017-11-25T21:01:22.189Z,5.73
2017-11-25T21:03:49.772Z,5.40
2017-11-25T21:06:17.320Z,5.63
2017-11-25T21:08:44.908Z,8.07
2017-11-25T21:11:13.632Z,5.30
2017-11-25T21:13:41.573Z,5.53
2017-11-25T21:16:09.951Z,6.10
2017-11-25T21:18:37.493Z,6.10
2017-11-25T21:21:05.060Z,5.40
2017-11-25T21:23:32.594Z,5.77
2017-11-25T21:26:00.907Z,5.93
2017-11-25T21:28:28.473Z,9.70
2017-11-25T21:30:56.356Z,5.10
2017-11-25T21:33:23.906Z,7.10
2017-11-25T21:35:51.659Z,7.20
2017-11-25T21:38:19.229Z,7.70
2017-11-25T21:40:46.785Z,5.90
2017-11-25T21:43:14.361Z,4.33
2017-11-25T21:45:41.933Z,6.80
2017-11-25T21:48:10.785Z,8.70
2017-11-25T21:50:38.324Z,7.23
2017-11-25T21:53:06.602Z,6.10
2017-11-25T21:55:34.209Z,5.83
2017-11-25T21:58:01.839Z,4.53
2017-11-25T22:00:29.409Z,4.70
2017-11-25T22:02:57.047Z,5.63
2017-11-25T22:05:24.981Z,4.80
2017-11-25T22:07:52.513Z,7.77
2017-11-25T22:10:20.040Z,9.33
2017-11-25T22:12:47.608Z,6.60
2017-11-25T22:15:15.923Z,5.90
2017-11-25T22:17:43.489Z,5.20
2017-11-25T22:20:11.115Z,10.93
2017-11-25T22:22:39.635Z,7.27
2017-11-25T22:25:07.162Z,6.63
2017-11-25T22:27:35.049Z,7.83
2017-11-25T22:30:02.621Z,9.17
2017-11-25T22:32:30.144Z,7.93
2017-11-25T22:34:57.816Z,7.90
2017-11-25T22:37:25.563Z,9.17
2017-11-25T22:39:55.335Z,6.07
2017-11-25T22:42:22.926Z,9.23
2017-11-25T22:44:51.528Z,5.73
2017-11-25T22:47:19.060Z,5.50
2017-11-25T22:49:47.836Z,9.33
2017-11-25T22:52:16.389Z,5.70
2017-11-25T22:54:44.112Z,6.43
2017-11-25T22:57:11.689Z,11.23
2017-11-25T22:59:39.231Z,6.13
2017-11-25T23:02:07.920Z,6.80
2017-11-25T23:04:36.192Z,6.60
2017-11-25T23:07:04.479Z,7.13
2017-11-25T23:09:32.793Z,8.53
2017-11-25T23:12:00.331Z,7.53
2017-11-25T23:14:27.938Z,5.27
2017-11-25T23:16:55.475Z,7.03
2017-11-25T23:19:23.329Z,13.63
2017-11-25T23:21:50.881Z,7.53
2017-11-25T23:24:18.410Z,8.33
2017-11-25T23:26:46.229Z,8.17
2017-11-25T23:29:13.819Z,6.50
2017-11-25T23:31:41.464Z,6.47
2017-11-25T23:34:09.045Z,8.27
2017-11-25T23:36:37.361Z,9.83
2017-11-25T23:39:05.007Z,7.37
2017-11-25T23:41:32.542Z,9.27
2017-11-25T23:44:00.121Z,13.00
2017-11-25T23:46:27.872Z,11.07
2017-11-25T23:48:56.716Z,10.30
2017-11-25T23:51:24.373Z,14.20
2017-11-25T23:53:52.299Z,11.53
2017-11-25T23:56:19.910Z,9.93
2017-11-25T23:58:47.453Z,11.97
